sensor_id;sensor_type;location;lat;lon;timestamp;P1;durP1;ratioP1;P2;durP2;ratioP2
40781;SDS011;26493;51.938;7.626;2023-05-10T00:01:28;16.95;;;15.25;;
40781;SDS011;26493;51.938;7.626;2023-05-10T00:03:54;16.75;;;15.05;;
40781;SDS011;26493;51.938;7.626;2023-05-10T00:09:24;16.75;;;15.05;;
40781;SDS011;26493;51.938;7.626;2023-05-10T00:11:56;16.95;;;15.25;;
40781;SDS011;26493;51.938;7.626;2023-05-10T00:14:23;17.40;;;15.60;;
40781;SDS011;26493;51.938;7.626;2023-05-10T00:16:49;18.00;;;16.30;;
40781;SDS011;26493;51.938;7.626;2023-05-10T00:19:15;17.27;;;15.57;;
40781;SDS011;26493;51.938;7.626;2023-05-10T00:21:41;17.90;;;16.20;;
40781;SDS011;26493;51.938;7.626;2023-05-10T00:24:25;17.50;;;15.80;;
40781;SDS011;26493;51.938;7.626;2023-05-10T00:26:51;19.50;;;17.70;;
40781;SDS011;26493;51.938;7.626;2023-05-10T00:29:17;18.20;;;16.50;;
40781;SDS011;26493;51.938;7.626;2023-05-10T00:31:50;18.20;;;16.50;;
40781;SDS011;26493;51.938;7.626;2023-05-10T00:34:16;18.45;;;16.75;;
40781;SDS011;26493;51.938;7.626;2023-05-10T00:36:42;18.13;;;16.42;;
40781;SDS011;26493;51.938;7.626;2023-05-10T00:39:08;17.90;;;16.20;;
40781;SDS011;26493;51.938;7.626;2023-05-10T00:41:34;18.30;;;16.60;;
40781;SDS011;26493;51.938;7.626;2023-05-10T00:44:00;18.20;;;16.50;;
40781;SDS011;26493;51.938;7.626;2023-05-10T00:46:42;18.30;;;16.60;;
40781;SDS011;26493;51.938;7.626;2023-05-10T00:49:08;17.67;;;15.98;;
40781;SDS011;26493;51.938;7.626;2023-05-10T00:51:34;19.38;;;17.58;;
40781;SDS011;26493;51.938;7.626;2023-05-10T00:54:01;19.38;;;17.58;;
40781;SDS011;26493;51.938;7.626;2023-05-10T00:59:28;21.50;;;19.60;;
40781;SDS011;26493;51.938;7.626;2023-05-10T01:01:54;19.70;;;17.90;;
40781;SDS011;26493;51.938;7.626;2023-05-10T01:04:20;19.45;;;17.65;;
40781;SDS011;26493;51.938;7.626;2023-05-10T01:06:53;20.02;;;18.23;;
40781;SDS011;26493;51.938;7.626;2023-05-10T01:09:19;19.63;;;17.83;;
40781;SDS011;26493;51.938;7.626;2023-05-10T01:11:45;19.05;;;17.25;;
40781;SDS011;26493;51.938;7.626;2023-05-10T01:14:11;19.40;;;17.60;;
40781;SDS011;26493;51.938;7.626;2023-05-10T01:16:50;19.95;;;18.15;;
40781;SDS011;26493;51.938;7.626;2023-05-10T01:40:32;24.08;;;22.17;;
40781;SDS011;26493;51.938;7.626;2023-05-10T01:43:02;25.77;;;23.77;;
40781;SDS011;26493;51.938;7.626;2023-05-10T01:45:32;24.17;;;22.20;;
40781;SDS011;26493;51.938;7.626;2023-05-10T01:53:47;23.65;;;21.75;;
40781;SDS011;26493;51.938;7.626;2023-05-10T02:01:56;23.50;;;21.45;;
40781;SDS011;26493;51.938;7.626;2023-05-10T02:04:23;24.00;;;22.10;;
40781;SDS011;26493;51.938;7.626;2023-05-10T02:06:54;22.95;;;21.05;;
40781;SDS011;26493;51.938;7.626;2023-05-10T02:12:09;22.98;;;21.08;;
40781;SDS011;26493;51.938;7.626;2023-05-10T02:14:35;23.73;;;21.83;;
40781;SDS011;26493;51.938;7.626;2023-05-10T02:17:08;23.08;;;21.17;;
40781;SDS011;26493;51.938;7.626;2023-05-10T02:19:36;22.58;;;20.67;;
40781;SDS011;26493;51.938;7.626;2023-05-10T02:22:04;23.00;;;21.10;;
40781;SDS011;26493;51.938;7.626;2023-05-10T02:24:30;23.88;;;21.98;;
40781;SDS011;26493;51.938;7.626;2023-05-10T02:26:57;23.35;;;21.45;;
40781;SDS011;26493;51.938;7.626;2023-05-10T02:29:24;23.90;;;22.00;;
40781;SDS011;26493;51.938;7.626;2023-05-10T02:31:52;25.50;;;23.40;;
40781;SDS011;26493;51.938;7.626;2023-05-10T02:34:19;25.08;;;23.08;;
40781;SDS011;26493;51.938;7.626;2023-05-10T02:36:45;25.08;;;23.08;;
40781;SDS011;26493;51.938;7.626;2023-05-10T02:39:11;25.15;;;23.15;;
40781;SDS011;26493;51.938;7.626;2023-05-10T02:41:40;24.77;;;22.77;;
40781;SDS011;26493;51.938;7.626;2023-05-10T02:44:06;24.75;;;22.75;;
40781;SDS011;26493;51.938;7.626;2023-05-10T02:49:37;23.73;;;21.83;;
40781;SDS011;26493;51.938;7.626;2023-05-10T02:52:05;23.60;;;21.70;;
40781;SDS011;26493;51.938;7.626;2023-05-10T02:54:38;24.80;;;22.80;;
40781;SDS011;26493;51.938;7.626;2023-05-10T02:57:05;23.83;;;21.92;;
40781;SDS011;26493;51.938;7.626;2023-05-10T02:59:32;24.80;;;22.80;;
40781;SDS011;26493;51.938;7.626;2023-05-10T03:01:58;24.75;;;22.75;;
40781;SDS011;26493;51.938;7.626;2023-05-10T03:04:25;24.20;;;22.30;;
40781;SDS011;26493;51.938;7.626;2023-05-10T03:06:57;23.38;;;21.48;;
40781;SDS011;26493;51.938;7.626;2023-05-10T03:09:30;23.83;;;21.92;;
40781;SDS011;26493;51.938;7.626;2023-05-10T03:14:57;23.30;;;21.40;;
40781;SDS011;26493;51.938;7.626;2023-05-10T03:20:31;24.30;;;22.40;;
40781;SDS011;26493;51.938;7.626;2023-05-10T03:23:04;23.70;;;21.80;;
40781;SDS011;26493;51.938;7.626;2023-05-10T03:25:33;24.35;;;22.45;;
40781;SDS011;26493;51.938;7.626;2023-05-10T03:28:00;25.75;;;23.75;;
40781;SDS011;26493;51.938;7.626;2023-05-10T03:30:27;26.83;;;24.80;;
40781;SDS011;26493;51.938;7.626;2023-05-10T03:35:57;27.48;;;25.38;;
40781;SDS011;26493;51.938;7.626;2023-05-10T03:38:23;26.65;;;24.65;;
40781;SDS011;26493;51.938;7.626;2023-05-10T03:40:49;25.42;;;23.42;;
40781;SDS011;26493;51.938;7.626;2023-05-10T03:43:30;26.33;;;24.33;;
40781;SDS011;26493;51.938;7.626;2023-05-10T03:45:56;25.52;;;23.52;;
40781;SDS011;26493;51.938;7.626;2023-05-10T03:48:22;25.73;;;23.73;;
40781;SDS011;26493;51.938;7.626;2023-05-10T03:50:48;26.27;;;24.27;;
40781;SDS011;26493;51.938;7.626;2023-05-10T03:53:17;26.10;;;24.10;;
40781;SDS011;26493;51.938;7.626;2023-05-10T03:55:43;25.33;;;23.33;;
40781;SDS011;26493;51.938;7.626;2023-05-10T03:58:12;25.00;;;23.00;;
40781;SDS011;26493;51.938;7.626;2023-05-10T04:00:38;24.90;;;22.90;;
40781;SDS011;26493;51.938;7.626;2023-05-10T04:03:10;25.15;;;23.15;;
40781;SDS011;26493;51.938;7.626;2023-05-10T04:05:36;24.63;;;22.63;;
40781;SDS011;26493;51.938;7.626;2023-05-10T04:11:10;25.02;;;23.02;;
40781;SDS011;26493;51.938;7.626;2023-05-10T04:13:36;27.13;;;24.88;;
40781;SDS011;26493;51.938;7.626;2023-05-10T04:16:12;25.30;;;23.30;;
40781;SDS011;26493;51.938;7.626;2023-05-10T04:18:38;25.50;;;23.50;;
40781;SDS011;26493;51.938;7.626;2023-05-10T04:21:10;26.38;;;24.27;;
40781;SDS011;26493;51.938;7.626;2023-05-10T04:23:36;26.55;;;24.45;;
40781;SDS011;26493;51.938;7.626;2023-05-10T04:29:06;27.27;;;25.17;;
40781;SDS011;26493;51.938;7.626;2023-05-10T04:31:32;27.13;;;25.02;;
40781;SDS011;26493;51.938;7.626;2023-05-10T04:33:58;27.45;;;25.33;;
40781;SDS011;26493;51.938;7.626;2023-05-10T04:36:24;27.38;;;25.27;;
40781;SDS011;26493;51.938;7.626;2023-05-10T04:38:50;27.17;;;25.08;;
40781;SDS011;26493;51.938;7.626;2023-05-10T04:41:16;28.40;;;26.20;;
40781;SDS011;26493;51.938;7.626;2023-05-10T04:43:42;27.38;;;25.27;;
40781;SDS011;26493;51.938;7.626;2023-05-10T04:46:08;27.70;;;25.50;;
40781;SDS011;26493;51.938;7.626;2023-05-10T04:48:34;28.30;;;26.10;;
40781;SDS011;26493;51.938;7.626;2023-05-10T04:51:00;29.30;;;27.00;;
40781;SDS011;26493;51.938;7.626;2023-05-10T04:53:28;28.02;;;25.83;;
40781;SDS011;26493;51.938;7.626;2023-05-10T04:55:54;27.98;;;25.77;;
40781;SDS011;26493;51.938;7.626;2023-05-10T04:58:20;30.30;;;27.92;;
40781;SDS011;26493;51.938;7.626;2023-05-10T05:00:46;28.40;;;26.20;;
40781;SDS011;26493;51.938;7.626;2023-05-10T05:03:12;28.58;;;26.38;;
40781;SDS011;26493;51.938;7.626;2023-05-10T05:05:38;27.90;;;25.70;;
40781;SDS011;26493;51.938;7.626;2023-05-10T05:08:19;29.80;;;27.50;;
40781;SDS011;26493;51.938;7.626;2023-05-10T05:10:45;29.48;;;27.17;;
40781;SDS011;26493;51.938;7.626;2023-05-10T05:13:12;28.95;;;26.67;;
40781;SDS011;26493;51.938;7.626;2023-05-10T05:15:38;28.80;;;26.55;;
40781;SDS011;26493;51.938;7.626;2023-05-10T05:20:58;28.63;;;26.33;;
40781;SDS011;26493;51.938;7.626;2023-05-10T05:23:24;28.55;;;26.35;;
40781;SDS011;26493;51.938;7.626;2023-05-10T05:25:53;28.98;;;26.67;;
40781;SDS011;26493;51.938;7.626;2023-05-10T05:28:20;28.50;;;26.30;;
40781;SDS011;26493;51.938;7.626;2023-05-10T05:30:46;28.83;;;26.50;;
40781;SDS011;26493;51.938;7.626;2023-05-10T05:33:15;29.23;;;26.92;;
40781;SDS011;26493;51.938;7.626;2023-05-10T05:35:41;28.10;;;25.90;;
40781;SDS011;26493;51.938;7.626;2023-05-10T05:38:12;28.42;;;26.13;;
40781;SDS011;26493;51.938;7.626;2023-05-10T05:40:38;29.65;;;27.35;;
40781;SDS011;26493;51.938;7.626;2023-05-10T05:43:04;29.00;;;26.70;;
40781;SDS011;26493;51.938;7.626;2023-05-10T05:45:30;28.65;;;26.35;;
40781;SDS011;26493;51.938;7.626;2023-05-10T05:47:56;28.88;;;26.58;;
40781;SDS011;26493;51.938;7.626;2023-05-10T05:50:22;28.58;;;26.27;;
40781;SDS011;26493;51.938;7.626;2023-05-10T05:52:48;28.58;;;26.27;;
40781;SDS011;26493;51.938;7.626;2023-05-10T05:55:14;30.00;;;27.58;;
40781;SDS011;26493;51.938;7.626;2023-05-10T05:57:40;41.47;;;27.88;;
40781;SDS011;26493;51.938;7.626;2023-05-10T06:00:06;29.38;;;26.88;;
40781;SDS011;26493;51.938;7.626;2023-05-10T06:02:32;28.90;;;26.60;;
40781;SDS011;26493;51.938;7.626;2023-05-10T06:04:58;31.00;;;28.27;;
40781;SDS011;26493;51.938;7.626;2023-05-10T06:07:24;29.75;;;27.35;;
40781;SDS011;26493;51.938;7.626;2023-05-10T06:09:50;29.67;;;27.17;;
40781;SDS011;26493;51.938;7.626;2023-05-10T06:12:16;30.45;;;27.90;;
40781;SDS011;26493;51.938;7.626;2023-05-10T06:14:42;30.67;;;28.20;;
40781;SDS011;26493;51.938;7.626;2023-05-10T06:17:08;31.40;;;28.90;;
40781;SDS011;26493;51.938;7.626;2023-05-10T06:19:34;31.63;;;29.13;;
40781;SDS011;26493;51.938;7.626;2023-05-10T06:22:01;31.42;;;28.92;;
40781;SDS011;26493;51.938;7.626;2023-05-10T06:24:27;31.58;;;29.08;;
40781;SDS011;26493;51.938;7.626;2023-05-10T06:27:02;31.67;;;29.17;;
40781;SDS011;26493;51.938;7.626;2023-05-10T06:29:29;33.15;;;30.55;;
40781;SDS011;26493;51.938;7.626;2023-05-10T06:31:55;35.25;;;32.65;;
40781;SDS011;26493;51.938;7.626;2023-05-10T06:34:20;34.08;;;31.48;;
40781;SDS011;26493;51.938;7.626;2023-05-10T06:36:46;34.35;;;31.75;;
40781;SDS011;26493;51.938;7.626;2023-05-10T06:39:12;33.80;;;31.20;;
40781;SDS011;26493;51.938;7.626;2023-05-10T06:41:39;33.20;;;30.60;;
40781;SDS011;26493;51.938;7.626;2023-05-10T06:44:05;34.35;;;31.75;;
40781;SDS011;26493;51.938;7.626;2023-05-10T06:46:31;34.55;;;31.85;;
40781;SDS011;26493;51.938;7.626;2023-05-10T06:48:57;36.78;;;33.97;;
40781;SDS011;26493;51.938;7.626;2023-05-10T06:51:23;38.15;;;35.25;;
40781;SDS011;26493;51.938;7.626;2023-05-10T06:53:49;37.42;;;34.60;;
40781;SDS011;26493;51.938;7.626;2023-05-10T06:56:15;35.42;;;32.72;;
40781;SDS011;26493;51.938;7.626;2023-05-10T06:58:41;40.47;;;36.22;;
40781;SDS011;26493;51.938;7.626;2023-05-10T07:01:07;37.92;;;35.03;;
40781;SDS011;26493;51.938;7.626;2023-05-10T07:03:33;37.50;;;34.50;;
40781;SDS011;26493;51.938;7.626;2023-05-10T07:06:08;35.42;;;32.63;;
40781;SDS011;26493;51.938;7.626;2023-05-10T07:08:34;36.38;;;33.58;;
40781;SDS011;26493;51.938;7.626;2023-05-10T07:11:01;34.95;;;32.25;;
40781;SDS011;26493;51.938;7.626;2023-05-10T07:13:28;38.25;;;35.38;;
40781;SDS011;26493;51.938;7.626;2023-05-10T07:18:48;37.47;;;34.58;;
40781;SDS011;26493;51.938;7.626;2023-05-10T07:21:15;37.83;;;35.03;;
40781;SDS011;26493;51.938;7.626;2023-05-10T07:23:41;37.55;;;34.80;;
40781;SDS011;26493;51.938;7.626;2023-05-10T07:26:07;40.05;;;36.97;;
40781;SDS011;26493;51.938;7.626;2023-05-10T07:28:34;39.78;;;36.97;;
40781;SDS011;26493;51.938;7.626;2023-05-10T07:31:02;38.40;;;35.63;;
40781;SDS011;26493;51.938;7.626;2023-05-10T07:33:28;36.03;;;33.42;;
40781;SDS011;26493;51.938;7.626;2023-05-10T07:36:03;38.78;;;36.05;;
40781;SDS011;26493;51.938;7.626;2023-05-10T07:38:29;37.50;;;34.88;;
40781;SDS011;26493;51.938;7.626;2023-05-10T07:43:58;34.67;;;32.15;;
40781;SDS011;26493;51.938;7.626;2023-05-10T07:46:25;44.85;;;28.60;;
40781;SDS011;26493;51.938;7.626;2023-05-10T07:48:51;31.40;;;29.02;;
40781;SDS011;26493;51.938;7.626;2023-05-10T07:54:01;31.02;;;28.42;;
40781;SDS011;26493;51.938;7.626;2023-05-10T07:56:29;29.88;;;27.48;;
40781;SDS011;26493;51.938;7.626;2023-05-10T07:58:57;28.20;;;26.00;;
40781;SDS011;26493;51.938;7.626;2023-05-10T08:01:35;26.42;;;24.33;;
40781;SDS011;26493;51.938;7.626;2023-05-10T08:04:01;28.27;;;26.08;;
40781;SDS011;26493;51.938;7.626;2023-05-10T08:06:27;26.90;;;24.80;;
40781;SDS011;26493;51.938;7.626;2023-05-10T08:08:54;27.77;;;25.60;;
40781;SDS011;26493;51.938;7.626;2023-05-10T08:11:21;27.60;;;25.33;;
40781;SDS011;26493;51.938;7.626;2023-05-10T08:13:47;23.67;;;21.67;;
40781;SDS011;26493;51.938;7.626;2023-05-10T08:16:14;25.27;;;23.25;;
40781;SDS011;26493;51.938;7.626;2023-05-10T08:18:40;22.02;;;20.13;;
40781;SDS011;26493;51.938;7.626;2023-05-10T08:27:01;20.13;;;15.88;;
40781;SDS011;26493;51.938;7.626;2023-05-10T08:29:27;14.73;;;12.27;;
40781;SDS011;26493;51.938;7.626;2023-05-10T08:31:53;14.55;;;11.70;;
40781;SDS011;26493;51.938;7.626;2023-05-10T08:37:13;14.68;;;10.30;;
40781;SDS011;26493;51.938;7.626;2023-05-10T08:39:39;13.98;;;9.13;;
40781;SDS011;26493;51.938;7.626;2023-05-10T08:42:05;14.57;;;10.40;;
40781;SDS011;26493;51.938;7.626;2023-05-10T08:44:32;14.15;;;10.02;;
40781;SDS011;26493;51.938;7.626;2023-05-10T08:47:02;13.90;;;9.60;;
40781;SDS011;26493;51.938;7.626;2023-05-10T08:49:31;17.38;;;10.90;;
40781;SDS011;26493;51.938;7.626;2023-05-10T08:54:51;13.82;;;8.95;;
40781;SDS011;26493;51.938;7.626;2023-05-10T08:57:18;13.45;;;8.45;;
40781;SDS011;26493;51.938;7.626;2023-05-10T08:59:45;11.48;;;6.90;;
40781;SDS011;26493;51.938;7.626;2023-05-10T09:02:11;11.13;;;6.68;;
40781;SDS011;26493;51.938;7.626;2023-05-10T09:04:38;15.45;;;8.18;;
40781;SDS011;26493;51.938;7.626;2023-05-10T09:07:05;11.82;;;7.40;;
40781;SDS011;26493;51.938;7.626;2023-05-10T09:09:31;11.43;;;6.97;;
40781;SDS011;26493;51.938;7.626;2023-05-10T09:11:57;12.65;;;8.13;;
40781;SDS011;26493;51.938;7.626;2023-05-10T09:14:24;12.23;;;8.23;;
40781;SDS011;26493;51.938;7.626;2023-05-10T09:16:59;11.45;;;6.95;;
40781;SDS011;26493;51.938;7.626;2023-05-10T09:19:25;11.63;;;7.22;;
40781;SDS011;26493;51.938;7.626;2023-05-10T09:21:51;11.45;;;7.30;;
40781;SDS011;26493;51.938;7.626;2023-05-10T09:24:17;11.75;;;7.05;;
40781;SDS011;26493;51.938;7.626;2023-05-10T09:26:47;10.43;;;6.38;;
40781;SDS011;26493;51.938;7.626;2023-05-10T09:29:16;12.68;;;7.97;;
40781;SDS011;26493;51.938;7.626;2023-05-10T09:31:46;10.68;;;6.43;;
40781;SDS011;26493;51.938;7.626;2023-05-10T09:34:16;10.38;;;6.28;;
40781;SDS011;26493;51.938;7.626;2023-05-10T09:36:52;11.07;;;6.78;;
40781;SDS011;26493;51.938;7.626;2023-05-10T09:39:18;11.20;;;6.78;;
40781;SDS011;26493;51.938;7.626;2023-05-10T09:41:44;11.65;;;7.25;;
40781;SDS011;26493;51.938;7.626;2023-05-10T09:44:11;11.40;;;6.85;;
40781;SDS011;26493;51.938;7.626;2023-05-10T09:46:37;12.48;;;7.43;;
40781;SDS011;26493;51.938;7.626;2023-05-10T09:49:03;12.00;;;7.35;;
40781;SDS011;26493;51.938;7.626;2023-05-10T09:51:43;15.77;;;8.73;;
40781;SDS011;26493;51.938;7.626;2023-05-10T09:56:35;13.02;;;8.00;;
40781;SDS011;26493;51.938;7.626;2023-05-10T09:59:04;11.10;;;6.88;;
40781;SDS011;26493;51.938;7.626;2023-05-10T10:01:42;10.45;;;6.30;;
40781;SDS011;26493;51.938;7.626;2023-05-10T10:04:14;12.30;;;7.93;;
40781;SDS011;26493;51.938;7.626;2023-05-10T10:06:41;11.00;;;6.55;;
40781;SDS011;26493;51.938;7.626;2023-05-10T10:09:07;10.82;;;6.97;;
40781;SDS011;26493;51.938;7.626;2023-05-10T10:11:34;11.45;;;7.18;;
40781;SDS011;26493;51.938;7.626;2023-05-10T10:14:00;10.82;;;6.50;;
40781;SDS011;26493;51.938;7.626;2023-05-10T10:19:26;30.75;;;18.70;;
40781;SDS011;26493;51.938;7.626;2023-05-10T10:21:52;29.52;;;18.48;;
40781;SDS011;26493;51.938;7.626;2023-05-10T10:24:18;28.55;;;19.88;;
40781;SDS011;26493;51.938;7.626;2023-05-10T10:27:03;28.85;;;19.17;;
40781;SDS011;26493;51.938;7.626;2023-05-10T10:34:40;29.75;;;20.55;;
40781;SDS011;26493;51.938;7.626;2023-05-10T10:37:07;31.02;;;20.73;;
40781;SDS011;26493;51.938;7.626;2023-05-10T10:39:33;32.00;;;20.85;;
40781;SDS011;26493;51.938;7.626;2023-05-10T10:42:01;34.00;;;22.15;;
40781;SDS011;26493;51.938;7.626;2023-05-10T10:49:37;31.83;;;20.55;;
40781;SDS011;26493;51.938;7.626;2023-05-10T10:54:46;29.17;;;19.25;;
40781;SDS011;26493;51.938;7.626;2023-05-10T10:57:17;27.13;;;18.02;;
40781;SDS011;26493;51.938;7.626;2023-05-10T10:59:43;29.35;;;18.98;;
40781;SDS011;26493;51.938;7.626;2023-05-10T11:02:10;26.42;;;16.08;;
40781;SDS011;26493;51.938;7.626;2023-05-10T11:04:56;24.00;;;16.00;;
40781;SDS011;26493;51.938;7.626;2023-05-10T11:07:22;27.63;;;19.33;;
40781;SDS011;26493;51.938;7.626;2023-05-10T11:09:48;29.02;;;18.63;;
40781;SDS011;26493;51.938;7.626;2023-05-10T11:12:14;26.58;;;18.23;;
40781;SDS011;26493;51.938;7.626;2023-05-10T11:14:40;27.15;;;18.13;;
40781;SDS011;26493;51.938;7.626;2023-05-10T11:17:22;30.58;;;18.77;;
40781;SDS011;26493;51.938;7.626;2023-05-10T11:20:07;27.80;;;17.60;;
40781;SDS011;26493;51.938;7.626;2023-05-10T11:22:53;25.42;;;16.50;;
40781;SDS011;26493;51.938;7.626;2023-05-10T11:27:57;28.73;;;19.58;;
40781;SDS011;26493;51.938;7.626;2023-05-10T11:30:28;28.85;;;19.33;;
40781;SDS011;26493;51.938;7.626;2023-05-10T11:32:54;28.58;;;19.17;;
40781;SDS011;26493;51.938;7.626;2023-05-10T11:35:20;34.05;;;22.63;;
40781;SDS011;26493;51.938;7.626;2023-05-10T11:37:47;33.00;;;27.85;;
40781;SDS011;26493;51.938;7.626;2023-05-10T11:40:32;32.80;;;29.13;;
40781;SDS011;26493;51.938;7.626;2023-05-10T11:42:58;30.42;;;24.63;;
40781;SDS011;26493;51.938;7.626;2023-05-10T11:45:24;34.38;;;25.50;;
40781;SDS011;26493;51.938;7.626;2023-05-10T11:48:00;31.55;;;23.58;;
40781;SDS011;26493;51.938;7.626;2023-05-10T11:50:26;28.92;;;21.33;;
40781;SDS011;26493;51.938;7.626;2023-05-10T11:52:53;29.90;;;22.00;;
40781;SDS011;26493;51.938;7.626;2023-05-10T11:55:19;27.80;;;21.63;;
40781;SDS011;26493;51.938;7.626;2023-05-10T11:57:46;30.95;;;21.60;;
40781;SDS011;26493;51.938;7.626;2023-05-10T12:00:12;27.75;;;19.73;;
40781;SDS011;26493;51.938;7.626;2023-05-10T12:02:38;28.88;;;21.45;;
40781;SDS011;26493;51.938;7.626;2023-05-10T12:05:05;30.13;;;22.52;;
40781;SDS011;26493;51.938;7.626;2023-05-10T12:07:31;29.40;;;22.30;;
40781;SDS011;26493;51.938;7.626;2023-05-10T12:10:08;29.05;;;20.88;;
40781;SDS011;26493;51.938;7.626;2023-05-10T12:12:38;28.10;;;20.80;;
40781;SDS011;26493;51.938;7.626;2023-05-10T12:15:04;29.10;;;19.98;;
40781;SDS011;26493;51.938;7.626;2023-05-10T12:17:31;29.92;;;21.13;;
40781;SDS011;26493;51.938;7.626;2023-05-10T12:22:46;29.83;;;20.85;;
40781;SDS011;26493;51.938;7.626;2023-05-10T12:25:12;30.77;;;20.00;;
40781;SDS011;26493;51.938;7.626;2023-05-10T12:27:38;28.65;;;20.20;;
40781;SDS011;26493;51.938;7.626;2023-05-10T12:30:04;28.48;;;18.90;;
40781;SDS011;26493;51.938;7.626;2023-05-10T12:35:42;26.70;;;16.73;;
40781;SDS011;26493;51.938;7.626;2023-05-10T12:43:51;25.10;;;16.13;;
40781;SDS011;26493;51.938;7.626;2023-05-10T12:46:17;25.25;;;15.93;;
40781;SDS011;26493;51.938;7.626;2023-05-10T12:48:44;25.27;;;16.02;;
40781;SDS011;26493;51.938;7.626;2023-05-10T12:51:11;25.10;;;16.90;;
40781;SDS011;26493;51.938;7.626;2023-05-10T12:53:40;23.27;;;15.75;;
40781;SDS011;26493;51.938;7.626;2023-05-10T12:56:15;20.88;;;13.93;;
40781;SDS011;26493;51.938;7.626;2023-05-10T12:58:41;23.17;;;15.52;;
40781;SDS011;26493;51.938;7.626;2023-05-10T13:01:22;22.58;;;14.77;;
40781;SDS011;26493;51.938;7.626;2023-05-10T13:03:48;23.25;;;14.07;;
40781;SDS011;26493;51.938;7.626;2023-05-10T13:06:14;23.75;;;14.85;;
40781;SDS011;26493;51.938;7.626;2023-05-10T13:08:40;20.30;;;13.85;;
40781;SDS011;26493;51.938;7.626;2023-05-10T13:11:06;20.58;;;14.63;;
40781;SDS011;26493;51.938;7.626;2023-05-10T13:13:32;22.88;;;14.88;;
40781;SDS011;26493;51.938;7.626;2023-05-10T13:16:11;25.58;;;15.70;;
40781;SDS011;26493;51.938;7.626;2023-05-10T13:18:37;23.58;;;14.65;;
40781;SDS011;26493;51.938;7.626;2023-05-10T13:21:03;22.30;;;15.30;;
40781;SDS011;26493;51.938;7.626;2023-05-10T13:23:30;23.60;;;16.25;;
40781;SDS011;26493;51.938;7.626;2023-05-10T13:25:56;20.88;;;14.30;;
40781;SDS011;26493;51.938;7.626;2023-05-10T13:28:22;22.77;;;16.33;;
40781;SDS011;26493;51.938;7.626;2023-05-10T13:31:00;24.13;;;15.75;;
40781;SDS011;26493;51.938;7.626;2023-05-10T13:33:26;27.17;;;16.20;;
40781;SDS011;26493;51.938;7.626;2023-05-10T13:36:08;23.05;;;15.18;;
40781;SDS011;26493;51.938;7.626;2023-05-10T13:38:34;25.27;;;16.30;;
40781;SDS011;26493;51.938;7.626;2023-05-10T13:41:00;30.42;;;16.88;;
40781;SDS011;26493;51.938;7.626;2023-05-10T13:43:26;26.20;;;16.70;;
40781;SDS011;26493;51.938;7.626;2023-05-10T13:46:04;27.67;;;17.98;;
40781;SDS011;26493;51.938;7.626;2023-05-10T13:48:30;28.58;;;17.88;;
40781;SDS011;26493;51.938;7.626;2023-05-10T13:51:12;24.20;;;16.35;;
40781;SDS011;26493;51.938;7.626;2023-05-10T13:53:38;28.38;;;17.80;;
40781;SDS011;26493;51.938;7.626;2023-05-10T13:56:04;26.83;;;17.88;;
40781;SDS011;26493;51.938;7.626;2023-05-10T13:58:31;27.95;;;19.13;;
40781;SDS011;26493;51.938;7.626;2023-05-10T14:01:10;25.77;;;16.92;;
40781;SDS011;26493;51.938;7.626;2023-05-10T14:03:37;27.52;;;18.33;;
40781;SDS011;26493;51.938;7.626;2023-05-10T14:06:03;29.73;;;19.33;;
40781;SDS011;26493;51.938;7.626;2023-05-10T14:08:29;27.80;;;18.35;;
40781;SDS011;26493;51.938;7.626;2023-05-10T14:10:55;27.60;;;19.52;;
40781;SDS011;26493;51.938;7.626;2023-05-10T14:13:21;27.80;;;18.02;;
40781;SDS011;26493;51.938;7.626;2023-05-10T14:15:47;27.88;;;19.50;;
40781;SDS011;26493;51.938;7.626;2023-05-10T14:18:13;27.67;;;18.63;;
40781;SDS011;26493;51.938;7.626;2023-05-10T14:20:39;27.45;;;17.90;;
40781;SDS011;26493;51.938;7.626;2023-05-10T14:23:05;28.75;;;18.85;;
40781;SDS011;26493;51.938;7.626;2023-05-10T14:25:32;29.23;;;19.42;;
40781;SDS011;26493;51.938;7.626;2023-05-10T14:27:59;28.58;;;16.67;;
40781;SDS011;26493;51.938;7.626;2023-05-10T14:30:25;24.67;;;17.23;;
40781;SDS011;26493;51.938;7.626;2023-05-10T14:32:51;26.73;;;16.98;;
40781;SDS011;26493;51.938;7.626;2023-05-10T14:35:19;26.38;;;16.10;;
40781;SDS011;26493;51.938;7.626;2023-05-10T14:43:53;24.55;;;16.15;;
40781;SDS011;26493;51.938;7.626;2023-05-10T15:01:37;28.55;;;17.52;;
40781;SDS011;26493;51.938;7.626;2023-05-10T15:04:03;27.45;;;18.35;;
40781;SDS011;26493;51.938;7.626;2023-05-10T15:06:30;30.25;;;19.85;;
40781;SDS011;26493;51.938;7.626;2023-05-10T15:08:57;31.00;;;18.42;;
40781;SDS011;26493;51.938;7.626;2023-05-10T15:11:23;33.20;;;19.58;;
40781;SDS011;26493;51.938;7.626;2023-05-10T15:13:48;30.17;;;18.95;;
40781;SDS011;26493;51.938;7.626;2023-05-10T15:16:15;28.83;;;18.85;;
40781;SDS011;26493;51.938;7.626;2023-05-10T15:18:41;27.17;;;17.38;;
40781;SDS011;26493;51.938;7.626;2023-05-10T15:21:07;28.13;;;17.58;;
40781;SDS011;26493;51.938;7.626;2023-05-10T15:23:33;26.13;;;17.05;;
40781;SDS011;26493;51.938;7.626;2023-05-10T15:25:59;27.52;;;19.00;;
40781;SDS011;26493;51.938;7.626;2023-05-10T15:28:25;27.80;;;18.38;;
40781;SDS011;26493;51.938;7.626;2023-05-10T15:30:51;25.77;;;16.83;;
40781;SDS011;26493;51.938;7.626;2023-05-10T15:33:17;24.15;;;16.05;;
40781;SDS011;26493;51.938;7.626;2023-05-10T15:35:43;24.20;;;16.08;;
40781;SDS011;26493;51.938;7.626;2023-05-10T15:38:10;26.48;;;16.60;;
40781;SDS011;26493;51.938;7.626;2023-05-10T15:40:36;24.73;;;15.27;;
40781;SDS011;26493;51.938;7.626;2023-05-10T15:43:02;22.75;;;14.15;;
40781;SDS011;26493;51.938;7.626;2023-05-10T15:45:30;23.65;;;15.70;;
40781;SDS011;26493;51.938;7.626;2023-05-10T15:47:57;24.55;;;15.63;;
40781;SDS011;26493;51.938;7.626;2023-05-10T15:50:24;22.90;;;14.87;;
40781;SDS011;26493;51.938;7.626;2023-05-10T15:52:50;23.15;;;15.75;;
40781;SDS011;26493;51.938;7.626;2023-05-10T15:55:16;24.42;;;15.70;;
40781;SDS011;26493;51.938;7.626;2023-05-10T15:57:42;23.17;;;14.05;;
40781;SDS011;26493;51.938;7.626;2023-05-10T16:00:09;25.13;;;15.35;;
40781;SDS011;26493;51.938;7.626;2023-05-10T16:02:35;22.13;;;14.35;;
40781;SDS011;26493;51.938;7.626;2023-05-10T16:05:02;21.33;;;14.00;;
40781;SDS011;26493;51.938;7.626;2023-05-10T16:07:28;22.35;;;14.13;;
40781;SDS011;26493;51.938;7.626;2023-05-10T16:09:54;25.05;;;15.43;;
40781;SDS011;26493;51.938;7.626;2023-05-10T16:12:20;20.42;;;13.70;;
40781;SDS011;26493;51.938;7.626;2023-05-10T16:14:46;23.05;;;14.98;;
40781;SDS011;26493;51.938;7.626;2023-05-10T16:17:12;21.85;;;14.82;;
40781;SDS011;26493;51.938;7.626;2023-05-10T16:19:41;21.98;;;15.63;;
40781;SDS011;26493;51.938;7.626;2023-05-10T16:22:07;23.00;;;15.05;;
40781;SDS011;26493;51.938;7.626;2023-05-10T16:24:33;22.13;;;15.30;;
40781;SDS011;26493;51.938;7.626;2023-05-10T16:27:00;24.23;;;16.38;;
40781;SDS011;26493;51.938;7.626;2023-05-10T16:29:27;24.42;;;15.55;;
40781;SDS011;26493;51.938;7.626;2023-05-10T16:31:53;22.42;;;15.20;;
40781;SDS011;26493;51.938;7.626;2023-05-10T16:34:19;23.23;;;15.82;;
40781;SDS011;26493;51.938;7.626;2023-05-10T16:36:48;23.25;;;15.15;;
40781;SDS011;26493;51.938;7.626;2023-05-10T16:39:14;29.33;;;16.83;;
40781;SDS011;26493;51.938;7.626;2023-05-10T16:41:40;24.80;;;16.13;;
40781;SDS011;26493;51.938;7.626;2023-05-10T16:44:06;22.60;;;15.52;;